sensor_id;sensor_type;location;lat;lon;timestamp;P1;durP1;ratioP1;P2;durP2;ratioP2
13959;SDS011;7052;51.050;3.716;2022-12-18T00:00:59;49.07;;;31.70;;
13959;SDS011;7052;51.050;3.716;2022-12-18T00:03:31;48.47;;;31.67;;
13959;SDS011;7052;51.050;3.716;2022-12-18T00:05:58;56.93;;;35.43;;
13959;SDS011;7052;51.050;3.716;2022-12-18T00:08:25;50.10;;;33.07;;
13959;SDS011;7052;51.050;3.716;2022-12-18T00:10:57;50.83;;;34.63;;
13959;SDS011;7052;51.050;3.716;2022-12-18T00:13:31;47.87;;;33.07;;
13959;SDS011;7052;51.050;3.716;2022-12-18T00:16:01;59.60;;;35.17;;
13959;SDS011;7052;51.050;3.716;2022-12-18T00:18:28;53.60;;;34.93;;
13959;SDS011;7052;51.050;3.716;2022-12-18T00:20:58;50.70;;;33.40;;
13959;SDS011;7052;51.050;3.716;2022-12-18T00:23:25;49.40;;;32.47;;
13959;SDS011;7052;51.050;3.716;2022-12-18T00:25:52;49.70;;;33.13;;
13959;SDS011;7052;51.050;3.716;2022-12-18T00:28:20;53.47;;;33.50;;
13959;SDS011;7052;51.050;3.716;2022-12-18T00:30:47;52.50;;;33.37;;
13959;SDS011;7052;51.050;3.716;2022-12-18T00:33:16;51.63;;;32.90;;
13959;SDS011;7052;51.050;3.716;2022-12-18T00:35:44;49.97;;;32.67;;
13959;SDS011;7052;51.050;3.716;2022-12-18T00:38:12;49.23;;;31.70;;
13959;SDS011;7052;51.050;3.716;2022-12-18T00:40:38;50.17;;;32.37;;
13959;SDS011;7052;51.050;3.716;2022-12-18T00:43:06;49.87;;;31.53;;
13959;SDS011;7052;51.050;3.716;2022-12-18T00:45:34;47.07;;;30.17;;
13959;SDS011;7052;51.050;3.716;2022-12-18T00:48:01;45.63;;;29.23;;
13959;SDS011;7052;51.050;3.716;2022-12-18T00:50:28;48.50;;;29.90;;
13959;SDS011;7052;51.050;3.716;2022-12-18T00:52:55;44.80;;;27.47;;
13959;SDS011;7052;51.050;3.716;2022-12-18T00:55:23;41.03;;;27.07;;
13959;SDS011;7052;51.050;3.716;2022-12-18T00:57:50;41.30;;;26.90;;
13959;SDS011;7052;51.050;3.716;2022-12-18T01:00:18;40.43;;;26.37;;
13959;SDS011;7052;51.050;3.716;2022-12-18T01:02:49;40.90;;;25.23;;
13959;SDS011;7052;51.050;3.716;2022-12-18T01:05:16;41.20;;;26.17;;
13959;SDS011;7052;51.050;3.716;2022-12-18T01:07:43;48.00;;;28.33;;
13959;SDS011;7052;51.050;3.716;2022-12-18T01:10:11;46.40;;;28.73;;
13959;SDS011;7052;51.050;3.716;2022-12-18T01:12:39;44.33;;;27.37;;
13959;SDS011;7052;51.050;3.716;2022-12-18T01:15:09;42.00;;;27.07;;
13959;SDS011;7052;51.050;3.716;2022-12-18T01:17:40;41.70;;;26.93;;
13959;SDS011;7052;51.050;3.716;2022-12-18T01:20:10;42.37;;;26.93;;
13959;SDS011;7052;51.050;3.716;2022-12-18T01:22:38;40.23;;;25.70;;
13959;SDS011;7052;51.050;3.716;2022-12-18T01:25:06;45.43;;;27.23;;
13959;SDS011;7052;51.050;3.716;2022-12-18T01:27:34;43.40;;;26.73;;
13959;SDS011;7052;51.050;3.716;2022-12-18T01:30:01;43.87;;;26.97;;
13959;SDS011;7052;51.050;3.716;2022-12-18T01:32:29;43.43;;;26.43;;
13959;SDS011;7052;51.050;3.716;2022-12-18T01:34:56;44.80;;;26.63;;
13959;SDS011;7052;51.050;3.716;2022-12-18T01:37:25;43.67;;;26.37;;
13959;SDS011;7052;51.050;3.716;2022-12-18T01:39:53;44.50;;;26.03;;
13959;SDS011;7052;51.050;3.716;2022-12-18T01:42:21;41.97;;;25.10;;
13959;SDS011;7052;51.050;3.716;2022-12-18T01:44:53;41.93;;;25.00;;
13959;SDS011;7052;51.050;3.716;2022-12-18T01:47:26;40.70;;;24.73;;
13959;SDS011;7052;51.050;3.716;2022-12-18T01:49:57;40.00;;;22.43;;
13959;SDS011;7052;51.050;3.716;2022-12-18T01:52:28;38.33;;;23.10;;
13959;SDS011;7052;51.050;3.716;2022-12-18T01:54:57;39.87;;;23.77;;
13959;SDS011;7052;51.050;3.716;2022-12-18T01:57:25;35.90;;;22.77;;
13959;SDS011;7052;51.050;3.716;2022-12-18T01:59:55;39.27;;;23.53;;
13959;SDS011;7052;51.050;3.716;2022-12-18T02:02:25;37.63;;;23.80;;
13959;SDS011;7052;51.050;3.716;2022-12-18T02:04:53;36.90;;;23.33;;
13959;SDS011;7052;51.050;3.716;2022-12-18T02:07:22;38.63;;;23.27;;
13959;SDS011;7052;51.050;3.716;2022-12-18T02:09:59;35.47;;;22.37;;
13959;SDS011;7052;51.050;3.716;2022-12-18T02:12:30;36.23;;;21.70;;
13959;SDS011;7052;51.050;3.716;2022-12-18T02:15:09;35.30;;;21.50;;
13959;SDS011;7052;51.050;3.716;2022-12-18T02:17:45;39.47;;;22.33;;
13959;SDS011;7052;51.050;3.716;2022-12-18T02:20:21;30.10;;;18.17;;
13959;SDS011;7052;51.050;3.716;2022-12-18T02:23:00;31.10;;;22.00;;
13959;SDS011;7052;51.050;3.716;2022-12-18T02:25:40;32.10;;;21.30;;
13959;SDS011;7052;51.050;3.716;2022-12-18T02:28:37;33.87;;;20.83;;
13959;SDS011;7052;51.050;3.716;2022-12-18T02:31:10;34.20;;;21.30;;
13959;SDS011;7052;51.050;3.716;2022-12-18T02:33:41;32.97;;;21.40;;
13959;SDS011;7052;51.050;3.716;2022-12-18T02:36:10;34.40;;;21.00;;
13959;SDS011;7052;51.050;3.716;2022-12-18T02:38:40;35.83;;;21.87;;
13959;SDS011;7052;51.050;3.716;2022-12-18T02:41:09;33.27;;;21.47;;
13959;SDS011;7052;51.050;3.716;2022-12-18T02:43:39;36.63;;;21.97;;
13959;SDS011;7052;51.050;3.716;2022-12-18T02:46:24;36.87;;;21.63;;
13959;SDS011;7052;51.050;3.716;2022-12-18T02:48:58;32.57;;;20.67;;
13959;SDS011;7052;51.050;3.716;2022-12-18T02:51:33;33.23;;;20.30;;
13959;SDS011;7052;51.050;3.716;2022-12-18T02:54:08;32.23;;;20.30;;
13959;SDS011;7052;51.050;3.716;2022-12-18T02:56:43;33.43;;;20.07;;
13959;SDS011;7052;51.050;3.716;2022-12-18T02:59:19;34.50;;;19.83;;
13959;SDS011;7052;51.050;3.716;2022-12-18T03:01:52;31.73;;;19.67;;
13959;SDS011;7052;51.050;3.716;2022-12-18T03:04:25;29.93;;;19.10;;
13959;SDS011;7052;51.050;3.716;2022-12-18T03:06:56;29.57;;;19.37;;
13959;SDS011;7052;51.050;3.716;2022-12-18T03:09:27;29.43;;;18.33;;
13959;SDS011;7052;51.050;3.716;2022-12-18T03:12:01;31.50;;;19.83;;
13959;SDS011;7052;51.050;3.716;2022-12-18T03:14:51;30.50;;;19.30;;
13959;SDS011;7052;51.050;3.716;2022-12-18T03:17:25;29.33;;;18.43;;
13959;SDS011;7052;51.050;3.716;2022-12-18T03:19:56;29.60;;;17.87;;
13959;SDS011;7052;51.050;3.716;2022-12-18T03:22:29;28.57;;;17.03;;
13959;SDS011;7052;51.050;3.716;2022-12-18T03:24:59;29.23;;;19.37;;
13959;SDS011;7052;51.050;3.716;2022-12-18T03:27:31;27.77;;;18.17;;
13959;SDS011;7052;51.050;3.716;2022-12-18T03:30:03;30.20;;;18.03;;
13959;SDS011;7052;51.050;3.716;2022-12-18T03:32:36;28.63;;;17.53;;
13959;SDS011;7052;51.050;3.716;2022-12-18T03:35:09;27.13;;;18.30;;
13959;SDS011;7052;51.050;3.716;2022-12-18T03:37:39;24.53;;;15.90;;
13959;SDS011;7052;51.050;3.716;2022-12-18T03:40:08;28.20;;;17.63;;
13959;SDS011;7052;51.050;3.716;2022-12-18T03:42:37;28.73;;;17.57;;
13959;SDS011;7052;51.050;3.716;2022-12-18T03:45:16;27.50;;;17.17;;
13959;SDS011;7052;51.050;3.716;2022-12-18T03:47:52;26.70;;;17.53;;
13959;SDS011;7052;51.050;3.716;2022-12-18T03:50:27;28.20;;;16.87;;
13959;SDS011;7052;51.050;3.716;2022-12-18T03:53:04;26.70;;;17.70;;
13959;SDS011;7052;51.050;3.716;2022-12-18T03:55:41;25.33;;;16.33;;
13959;SDS011;7052;51.050;3.716;2022-12-18T03:58:10;24.27;;;15.57;;
13959;SDS011;7052;51.050;3.716;2022-12-18T04:00:43;25.80;;;16.67;;
13959;SDS011;7052;51.050;3.716;2022-12-18T04:03:12;28.70;;;17.03;;
13959;SDS011;7052;51.050;3.716;2022-12-18T04:05:42;30.00;;;17.80;;
13959;SDS011;7052;51.050;3.716;2022-12-18T04:08:10;27.67;;;17.33;;
13959;SDS011;7052;51.050;3.716;2022-12-18T04:10:37;25.60;;;16.30;;
13959;SDS011;7052;51.050;3.716;2022-12-18T04:13:06;28.53;;;16.73;;
13959;SDS011;7052;51.050;3.716;2022-12-18T04:15:34;27.10;;;15.50;;
13959;SDS011;7052;51.050;3.716;2022-12-18T04:18:05;28.77;;;16.10;;
13959;SDS011;7052;51.050;3.716;2022-12-18T04:20:32;23.53;;;15.57;;
13959;SDS011;7052;51.050;3.716;2022-12-18T04:22:59;25.70;;;15.47;;
13959;SDS011;7052;51.050;3.716;2022-12-18T04:25:27;27.63;;;16.47;;
13959;SDS011;7052;51.050;3.716;2022-12-18T04:27:55;26.10;;;16.13;;
13959;SDS011;7052;51.050;3.716;2022-12-18T04:30:23;27.47;;;17.27;;
13959;SDS011;7052;51.050;3.716;2022-12-18T04:32:52;25.93;;;15.77;;
13959;SDS011;7052;51.050;3.716;2022-12-18T04:35:21;26.73;;;15.60;;
13959;SDS011;7052;51.050;3.716;2022-12-18T04:37:48;27.10;;;16.50;;
13959;SDS011;7052;51.050;3.716;2022-12-18T04:40:16;26.57;;;16.30;;
13959;SDS011;7052;51.050;3.716;2022-12-18T04:42:43;24.93;;;15.13;;
13959;SDS011;7052;51.050;3.716;2022-12-18T04:45:10;28.57;;;16.87;;
13959;SDS011;7052;51.050;3.716;2022-12-18T04:47:38;26.83;;;16.07;;
13959;SDS011;7052;51.050;3.716;2022-12-18T04:50:05;28.73;;;17.13;;
13959;SDS011;7052;51.050;3.716;2022-12-18T04:52:35;27.83;;;16.07;;
13959;SDS011;7052;51.050;3.716;2022-12-18T04:55:02;24.23;;;15.20;;
13959;SDS011;7052;51.050;3.716;2022-12-18T04:57:29;26.27;;;16.83;;
13959;SDS011;7052;51.050;3.716;2022-12-18T04:59:56;27.10;;;16.27;;
13959;SDS011;7052;51.050;3.716;2022-12-18T05:02:23;26.27;;;16.43;;
13959;SDS011;7052;51.050;3.716;2022-12-18T05:04:50;25.60;;;16.20;;
13959;SDS011;7052;51.050;3.716;2022-12-18T05:07:17;24.40;;;15.37;;
13959;SDS011;7052;51.050;3.716;2022-12-18T05:09:45;25.47;;;15.23;;
13959;SDS011;7052;51.050;3.716;2022-12-18T05:12:12;23.93;;;14.60;;
13959;SDS011;7052;51.050;3.716;2022-12-18T05:14:42;23.30;;;14.77;;
13959;SDS011;7052;51.050;3.716;2022-12-18T05:17:08;22.90;;;15.27;;
13959;SDS011;7052;51.050;3.716;2022-12-18T05:19:37;27.77;;;15.70;;
13959;SDS011;7052;51.050;3.716;2022-12-18T05:22:07;23.60;;;14.77;;
13959;SDS011;7052;51.050;3.716;2022-12-18T05:24:34;22.30;;;14.60;;
13959;SDS011;7052;51.050;3.716;2022-12-18T05:27:03;21.83;;;14.07;;
13959;SDS011;7052;51.050;3.716;2022-12-18T05:29:34;23.77;;;15.40;;
13959;SDS011;7052;51.050;3.716;2022-12-18T05:32:00;21.47;;;14.13;;
13959;SDS011;7052;51.050;3.716;2022-12-18T05:34:28;21.53;;;14.07;;
13959;SDS011;7052;51.050;3.716;2022-12-18T05:36:56;26.17;;;15.87;;
13959;SDS011;7052;51.050;3.716;2022-12-18T05:39:23;21.90;;;15.13;;
13959;SDS011;7052;51.050;3.716;2022-12-18T05:41:51;22.20;;;14.40;;
13959;SDS011;7052;51.050;3.716;2022-12-18T05:44:19;22.90;;;14.03;;
13959;SDS011;7052;51.050;3.716;2022-12-18T05:46:46;22.93;;;13.53;;
13959;SDS011;7052;51.050;3.716;2022-12-18T05:49:13;21.67;;;13.43;;
13959;SDS011;7052;51.050;3.716;2022-12-18T05:51:40;22.03;;;14.40;;
13959;SDS011;7052;51.050;3.716;2022-12-18T05:54:07;22.63;;;13.80;;
13959;SDS011;7052;51.050;3.716;2022-12-18T05:56:34;21.33;;;13.90;;
13959;SDS011;7052;51.050;3.716;2022-12-18T05:59:02;25.20;;;15.27;;
13959;SDS011;7052;51.050;3.716;2022-12-18T06:01:30;21.40;;;14.13;;
13959;SDS011;7052;51.050;3.716;2022-12-18T06:03:59;24.33;;;15.07;;
13959;SDS011;7052;51.050;3.716;2022-12-18T06:06:29;22.17;;;13.90;;
13959;SDS011;7052;51.050;3.716;2022-12-18T06:08:56;21.97;;;13.70;;
13959;SDS011;7052;51.050;3.716;2022-12-18T06:11:24;21.93;;;13.90;;
13959;SDS011;7052;51.050;3.716;2022-12-18T06:13:53;21.60;;;13.63;;
13959;SDS011;7052;51.050;3.716;2022-12-18T06:16:21;20.63;;;13.43;;
13959;SDS011;7052;51.050;3.716;2022-12-18T06:18:50;19.37;;;12.63;;
13959;SDS011;7052;51.050;3.716;2022-12-18T06:21:17;22.87;;;13.90;;
13959;SDS011;7052;51.050;3.716;2022-12-18T06:23:45;23.77;;;14.33;;
13959;SDS011;7052;51.050;3.716;2022-12-18T06:26:12;21.57;;;13.60;;
13959;SDS011;7052;51.050;3.716;2022-12-18T06:28:40;21.30;;;13.07;;
13959;SDS011;7052;51.050;3.716;2022-12-18T06:31:07;20.40;;;12.67;;
13959;SDS011;7052;51.050;3.716;2022-12-18T06:33:35;21.70;;;13.63;;
13959;SDS011;7052;51.050;3.716;2022-12-18T06:36:12;18.60;;;12.53;;
13959;SDS011;7052;51.050;3.716;2022-12-18T06:38:40;22.13;;;12.50;;
13959;SDS011;7052;51.050;3.716;2022-12-18T06:41:09;18.00;;;12.50;;
13959;SDS011;7052;51.050;3.716;2022-12-18T06:43:38;18.83;;;12.27;;
13959;SDS011;7052;51.050;3.716;2022-12-18T06:46:05;19.57;;;12.13;;
13959;SDS011;7052;51.050;3.716;2022-12-18T06:48:34;20.00;;;12.13;;
13959;SDS011;7052;51.050;3.716;2022-12-18T06:51:01;18.07;;;10.87;;
13959;SDS011;7052;51.050;3.716;2022-12-18T06:53:30;18.73;;;12.53;;
13959;SDS011;7052;51.050;3.716;2022-12-18T06:56:05;19.87;;;12.30;;
13959;SDS011;7052;51.050;3.716;2022-12-18T06:58:33;17.77;;;11.63;;
13959;SDS011;7052;51.050;3.716;2022-12-18T07:01:04;18.27;;;11.50;;
13959;SDS011;7052;51.050;3.716;2022-12-18T07:03:33;18.23;;;12.00;;
13959;SDS011;7052;51.050;3.716;2022-12-18T07:06:01;17.77;;;12.00;;
13959;SDS011;7052;51.050;3.716;2022-12-18T07:08:30;16.47;;;11.73;;
13959;SDS011;7052;51.050;3.716;2022-12-18T07:10:58;19.13;;;11.80;;
13959;SDS011;7052;51.050;3.716;2022-12-18T07:13:25;17.73;;;11.27;;
13959;SDS011;7052;51.050;3.716;2022-12-18T07:15:52;15.90;;;10.70;;
13959;SDS011;7052;51.050;3.716;2022-12-18T07:18:19;17.07;;;12.20;;
13959;SDS011;7052;51.050;3.716;2022-12-18T07:20:46;18.57;;;11.90;;
13959;SDS011;7052;51.050;3.716;2022-12-18T07:23:13;15.37;;;10.60;;
13959;SDS011;7052;51.050;3.716;2022-12-18T07:25:42;16.10;;;9.57;;
13959;SDS011;7052;51.050;3.716;2022-12-18T07:28:09;14.93;;;9.60;;
13959;SDS011;7052;51.050;3.716;2022-12-18T07:30:40;18.57;;;11.67;;
13959;SDS011;7052;51.050;3.716;2022-12-18T07:33:08;14.90;;;9.93;;
13959;SDS011;7052;51.050;3.716;2022-12-18T07:35:36;16.60;;;11.00;;
13959;SDS011;7052;51.050;3.716;2022-12-18T07:38:05;15.60;;;10.67;;
13959;SDS011;7052;51.050;3.716;2022-12-18T07:40:32;19.50;;;11.53;;
13959;SDS011;7052;51.050;3.716;2022-12-18T07:43:01;16.20;;;10.57;;
13959;SDS011;7052;51.050;3.716;2022-12-18T07:45:30;21.70;;;11.60;;
13959;SDS011;7052;51.050;3.716;2022-12-18T07:47:57;15.37;;;10.07;;
13959;SDS011;7052;51.050;3.716;2022-12-18T07:50:26;16.50;;;10.67;;
13959;SDS011;7052;51.050;3.716;2022-12-18T07:52:54;13.47;;;9.50;;
13959;SDS011;7052;51.050;3.716;2022-12-18T07:55:21;15.53;;;11.00;;
13959;SDS011;7052;51.050;3.716;2022-12-18T07:57:48;14.97;;;10.60;;
13959;SDS011;7052;51.050;3.716;2022-12-18T08:00:17;15.57;;;11.30;;
13959;SDS011;7052;51.050;3.716;2022-12-18T08:02:44;18.13;;;10.87;;
13959;SDS011;7052;51.050;3.716;2022-12-18T08:05:12;16.27;;;10.27;;
13959;SDS011;7052;51.050;3.716;2022-12-18T08:07:39;14.87;;;10.23;;
13959;SDS011;7052;51.050;3.716;2022-12-18T08:10:06;15.83;;;10.20;;
13959;SDS011;7052;51.050;3.716;2022-12-18T08:12:34;16.80;;;10.77;;
13959;SDS011;7052;51.050;3.716;2022-12-18T08:15:01;14.50;;;10.03;;
13959;SDS011;7052;51.050;3.716;2022-12-18T08:17:30;15.43;;;10.33;;
13959;SDS011;7052;51.050;3.716;2022-12-18T08:19:56;15.17;;;9.60;;
13959;SDS011;7052;51.050;3.716;2022-12-18T08:22:23;13.77;;;9.90;;
13959;SDS011;7052;51.050;3.716;2022-12-18T08:24:52;13.83;;;9.93;;
13959;SDS011;7052;51.050;3.716;2022-12-18T08:27:20;13.93;;;8.07;;
13959;SDS011;7052;51.050;3.716;2022-12-18T08:29:49;14.00;;;9.17;;
13959;SDS011;7052;51.050;3.716;2022-12-18T08:32:19;13.53;;;10.50;;
13959;SDS011;7052;51.050;3.716;2022-12-18T08:34:51;14.90;;;10.37;;
13959;SDS011;7052;51.050;3.716;2022-12-18T08:37:18;16.03;;;10.10;;
13959;SDS011;7052;51.050;3.716;2022-12-18T08:39:46;17.50;;;10.67;;
13959;SDS011;7052;51.050;3.716;2022-12-18T08:42:14;17.57;;;10.53;;
13959;SDS011;7052;51.050;3.716;2022-12-18T08:44:58;13.23;;;10.20;;
13959;SDS011;7052;51.050;3.716;2022-12-18T08:47:25;14.27;;;9.47;;
13959;SDS011;7052;51.050;3.716;2022-12-18T08:49:54;15.03;;;10.53;;
13959;SDS011;7052;51.050;3.716;2022-12-18T08:52:21;12.47;;;9.50;;
13959;SDS011;7052;51.050;3.716;2022-12-18T08:54:48;12.87;;;9.30;;
13959;SDS011;7052;51.050;3.716;2022-12-18T08:57:15;13.70;;;9.73;;
13959;SDS011;7052;51.050;3.716;2022-12-18T08:59:42;14.23;;;9.90;;
13959;SDS011;7052;51.050;3.716;2022-12-18T09:02:10;12.53;;;8.83;;
13959;SDS011;7052;51.050;3.716;2022-12-18T09:04:37;13.87;;;9.70;;
13959;SDS011;7052;51.050;3.716;2022-12-18T09:07:06;16.93;;;9.77;;
13959;SDS011;7052;51.050;3.716;2022-12-18T09:09:34;13.70;;;9.83;;
13959;SDS011;7052;51.050;3.716;2022-12-18T09:12:01;14.37;;;9.70;;
13959;SDS011;7052;51.050;3.716;2022-12-18T09:14:29;11.10;;;8.63;;
13959;SDS011;7052;51.050;3.716;2022-12-18T09:16:56;14.93;;;10.00;;
13959;SDS011;7052;51.050;3.716;2022-12-18T09:19:23;13.30;;;9.40;;
13959;SDS011;7052;51.050;3.716;2022-12-18T09:21:51;11.17;;;9.23;;
13959;SDS011;7052;51.050;3.716;2022-12-18T09:24:20;14.13;;;10.10;;
13959;SDS011;7052;51.050;3.716;2022-12-18T09:26:47;13.63;;;10.13;;
13959;SDS011;7052;51.050;3.716;2022-12-18T09:29:14;12.80;;;9.93;;
13959;SDS011;7052;51.050;3.716;2022-12-18T09:31:43;13.17;;;9.90;;
13959;SDS011;7052;51.050;3.716;2022-12-18T09:34:10;13.83;;;9.80;;
13959;SDS011;7052;51.050;3.716;2022-12-18T09:36:37;16.40;;;12.05;;
13959;SDS011;7052;51.050;3.716;2022-12-18T09:39:10;14.23;;;10.77;;
13959;SDS011;7052;51.050;3.716;2022-12-18T09:41:46;32.47;;;15.43;;
13959;SDS011;7052;51.050;3.716;2022-12-18T09:44:19;18.87;;;13.20;;
13959;SDS011;7052;51.050;3.716;2022-12-18T09:46:57;14.93;;;11.07;;
13959;SDS011;7052;51.050;3.716;2022-12-18T09:49:30;14.50;;;10.47;;
13959;SDS011;7052;51.050;3.716;2022-12-18T09:52:02;15.67;;;11.00;;
13959;SDS011;7052;51.050;3.716;2022-12-18T09:54:35;15.10;;;10.40;;
13959;SDS011;7052;51.050;3.716;2022-12-18T09:57:10;16.03;;;9.80;;
13959;SDS011;7052;51.050;3.716;2022-12-18T09:59:39;13.53;;;10.33;;
13959;SDS011;7052;51.050;3.716;2022-12-18T10:02:15;18.73;;;11.73;;
13959;SDS011;7052;51.050;3.716;2022-12-18T10:04:47;13.27;;;10.10;;
13959;SDS011;7052;51.050;3.716;2022-12-18T10:07:21;15.27;;;12.93;;
13959;SDS011;7052;51.050;3.716;2022-12-18T10:09:56;15.87;;;11.70;;
13959;SDS011;7052;51.050;3.716;2022-12-18T10:12:39;13.73;;;10.27;;
13959;SDS011;7052;51.050;3.716;2022-12-18T10:15:13;15.10;;;10.70;;
13959;SDS011;7052;51.050;3.716;2022-12-18T10:17:48;14.27;;;10.57;;
13959;SDS011;7052;51.050;3.716;2022-12-18T10:20:21;14.93;;;10.40;;
13959;SDS011;7052;51.050;3.716;2022-12-18T10:23:10;13.07;;;10.00;;
13959;SDS011;7052;51.050;3.716;2022-12-18T10:25:46;11.53;;;8.60;;
13959;SDS011;7052;51.050;3.716;2022-12-18T10:28:22;12.40;;;9.30;;
13959;SDS011;7052;51.050;3.716;2022-12-18T10:30:50;15.60;;;9.00;;
13959;SDS011;7052;51.050;3.716;2022-12-18T10:33:18;15.03;;;10.20;;
13959;SDS011;7052;51.050;3.716;2022-12-18T10:35:49;15.00;;;10.00;;
13959;SDS011;7052;51.050;3.716;2022-12-18T10:38:20;12.57;;;9.23;;
13959;SDS011;7052;51.050;3.716;2022-12-18T10:40:50;12.10;;;9.20;;
13959;SDS011;7052;51.050;3.716;2022-12-18T10:43:21;14.50;;;9.80;;
13959;SDS011;7052;51.050;3.716;2022-12-18T10:45:58;12.70;;;9.43;;
13959;SDS011;7052;51.050;3.716;2022-12-18T10:48:33;14.23;;;9.17;;
13959;SDS011;7052;51.050;3.716;2022-12-18T10:51:01;13.47;;;9.70;;
13959;SDS011;7052;51.050;3.716;2022-12-18T10:53:31;13.43;;;10.30;;
13959;SDS011;7052;51.050;3.716;2022-12-18T10:56:00;15.07;;;10.37;;
13959;SDS011;7052;51.050;3.716;2022-12-18T10:58:33;12.63;;;9.53;;
13959;SDS011;7052;51.050;3.716;2022-12-18T11:01:09;14.20;;;10.43;;
13959;SDS011;7052;51.050;3.716;2022-12-18T11:03:38;14.07;;;9.80;;
13959;SDS011;7052;51.050;3.716;2022-12-18T11:06:08;13.43;;;9.67;;
13959;SDS011;7052;51.050;3.716;2022-12-18T11:08:40;12.93;;;10.27;;
13959;SDS011;7052;51.050;3.716;2022-12-18T11:11:16;13.07;;;9.63;;
13959;SDS011;7052;51.050;3.716;2022-12-18T11:13:54;14.13;;;10.40;;
13959;SDS011;7052;51.050;3.716;2022-12-18T11:16:29;13.73;;;10.30;;
13959;SDS011;7052;51.050;3.716;2022-12-18T11:19:12;13.97;;;10.13;;
13959;SDS011;7052;51.050;3.716;2022-12-18T11:21:47;14.23;;;10.10;;
13959;SDS011;7052;51.050;3.716;2022-12-18T11:24:19;16.47;;;10.67;;
13959;SDS011;7052;51.050;3.716;2022-12-18T11:26:48;13.57;;;10.37;;
13959;SDS011;7052;51.050;3.716;2022-12-18T11:29:27;13.47;;;10.37;;
13959;SDS011;7052;51.050;3.716;2022-12-18T11:35:10;14.20;;;10.23;;
13959;SDS011;7052;51.050;3.716;2022-12-18T11:37:41;13.63;;;10.30;;
13959;SDS011;7052;51.050;3.716;2022-12-18T11:40:24;16.20;;;9.67;;
13959;SDS011;7052;51.050;3.716;2022-12-18T11:42:57;12.77;;;8.67;;
13959;SDS011;7052;51.050;3.716;2022-12-18T11:45:33;12.23;;;9.23;;
13959;SDS011;7052;51.050;3.716;2022-12-18T11:48:08;11.37;;;7.80;;
13959;SDS011;7052;51.050;3.716;2022-12-18T11:50:44;14.53;;;9.83;;
13959;SDS011;7052;51.050;3.716;2022-12-18T11:53:16;14.00;;;9.73;;
13959;SDS011;7052;51.050;3.716;2022-12-18T11:55:50;16.27;;;9.67;;
13959;SDS011;7052;51.050;3.716;2022-12-18T11:58:45;17.53;;;10.63;;
13959;SDS011;7052;51.050;3.716;2022-12-18T12:01:18;14.40;;;9.83;;
13959;SDS011;7052;51.050;3.716;2022-12-18T12:04:43;15.20;;;9.43;;
13959;SDS011;7052;51.050;3.716;2022-12-18T12:07:37;14.30;;;9.57;;
13959;SDS011;7052;51.050;3.716;2022-12-18T12:10:15;13.87;;;10.37;;
13959;SDS011;7052;51.050;3.716;2022-12-18T12:12:57;17.97;;;10.80;;
13959;SDS011;7052;51.050;3.716;2022-12-18T12:15:40;19.80;;;12.77;;
13959;SDS011;7052;51.050;3.716;2022-12-18T12:18:16;16.30;;;11.13;;
13959;SDS011;7052;51.050;3.716;2022-12-18T12:20:56;15.23;;;10.53;;
13959;SDS011;7052;51.050;3.716;2022-12-18T12:23:33;13.53;;;10.67;;
13959;SDS011;7052;51.050;3.716;2022-12-18T12:26:09;17.90;;;12.03;;
13959;SDS011;7052;51.050;3.716;2022-12-18T12:28:50;17.53;;;11.80;;
13959;SDS011;7052;51.050;3.716;2022-12-18T12:31:30;14.23;;;10.87;;
13959;SDS011;7052;51.050;3.716;2022-12-18T12:34:17;17.33;;;11.50;;
13959;SDS011;7052;51.050;3.716;2022-12-18T12:37:03;16.47;;;11.47;;
13959;SDS011;7052;51.050;3.716;2022-12-18T12:39:39;17.47;;;11.57;;
13959;SDS011;7052;51.050;3.716;2022-12-18T12:42:11;18.57;;;12.97;;
13959;SDS011;7052;51.050;3.716;2022-12-18T12:45:14;20.13;;;14.03;;
13959;SDS011;7052;51.050;3.716;2022-12-18T12:47:47;20.17;;;13.70;;
13959;SDS011;7052;51.050;3.716;2022-12-18T12:50:19;20.43;;;13.63;;
13959;SDS011;7052;51.050;3.716;2022-12-18T12:52:55;18.40;;;13.10;;
13959;SDS011;7052;51.050;3.716;2022-12-18T12:55:24;18.00;;;13.17;;
13959;SDS011;7052;51.050;3.716;2022-12-18T12:57:58;18.67;;;12.70;;
13959;SDS011;7052;51.050;3.716;2022-12-18T13:00:40;18.80;;;12.37;;
13959;SDS011;7052;51.050;3.716;2022-12-18T13:03:12;17.63;;;12.27;;
13959;SDS011;7052;51.050;3.716;2022-12-18T13:05:48;19.00;;;12.73;;
13959;SDS011;7052;51.050;3.716;2022-12-18T13:08:25;19.07;;;13.23;;
13959;SDS011;7052;51.050;3.716;2022-12-18T13:10:54;18.97;;;12.50;;
13959;SDS011;7052;51.050;3.716;2022-12-18T13:13:53;20.10;;;13.30;;
13959;SDS011;7052;51.050;3.716;2022-12-18T13:16:22;19.13;;;13.57;;
13959;SDS011;7052;51.050;3.716;2022-12-18T13:18:53;20.63;;;13.33;;
13959;SDS011;7052;51.050;3.716;2022-12-18T13:21:28;21.40;;;15.13;;
13959;SDS011;7052;51.050;3.716;2022-12-18T13:24:13;21.67;;;15.77;;
13959;SDS011;7052;51.050;3.716;2022-12-18T13:26:46;20.70;;;16.17;;
13959;SDS011;7052;51.050;3.716;2022-12-18T13:29:14;23.33;;;14.63;;
13959;SDS011;7052;51.050;3.716;2022-12-18T13:32:19;25.93;;;14.50;;
13959;SDS011;7052;51.050;3.716;2022-12-18T13:34:48;20.30;;;13.97;;
13959;SDS011;7052;51.050;3.716;2022-12-18T13:43:28;24.10;;;13.53;;
13959;SDS011;7052;51.050;3.716;2022-12-18T13:46:02;22.23;;;14.00;;
13959;SDS011;7052;51.050;3.716;2022-12-18T13:48:32;23.23;;;14.67;;
13959;SDS011;7052;51.050;3.716;2022-12-18T13:51:07;23.83;;;14.60;;
13959;SDS011;7052;51.050;3.716;2022-12-18T13:53:42;21.57;;;14.37;;
13959;SDS011;7052;51.050;3.716;2022-12-18T13:56:15;26.90;;;14.40;;
13959;SDS011;7052;51.050;3.716;2022-12-18T13:58:45;23.60;;;15.03;;
13959;SDS011;7052;51.050;3.716;2022-12-18T14:01:21;16.27;;;10.73;;
13959;SDS011;7052;51.050;3.716;2022-12-18T14:03:51;22.70;;;14.27;;
13959;SDS011;7052;51.050;3.716;2022-12-18T14:06:35;19.87;;;13.70;;
13959;SDS011;7052;51.050;3.716;2022-12-18T14:09:04;27.10;;;13.00;;
13959;SDS011;7052;51.050;3.716;2022-12-18T14:11:31;24.23;;;13.97;;
13959;SDS011;7052;51.050;3.716;2022-12-18T14:14:01;21.50;;;14.37;;
13959;SDS011;7052;51.050;3.716;2022-12-18T14:16:32;36.23;;;17.27;;
13959;SDS011;7052;51.050;3.716;2022-12-18T14:19:00;23.03;;;14.03;;
13959;SDS011;7052;51.050;3.716;2022-12-18T14:21:29;28.23;;;15.33;;
13959;SDS011;7052;51.050;3.716;2022-12-18T14:24:04;26.33;;;16.03;;
13959;SDS011;7052;51.050;3.716;2022-12-18T14:26:32;22.43;;;15.03;;
13959;SDS011;7052;51.050;3.716;2022-12-18T14:29:00;25.83;;;15.30;;
13959;SDS011;7052;51.050;3.716;2022-12-18T14:31:46;25.40;;;14.13;;
13959;SDS011;7052;51.050;3.716;2022-12-18T14:34:31;24.83;;;14.17;;
13959;SDS011;7052;51.050;3.716;2022-12-18T14:36:58;20.93;;;14.13;;
13959;SDS011;7052;51.050;3.716;2022-12-18T14:39:26;19.57;;;11.83;;
13959;SDS011;7052;51.050;3.716;2022-12-18T14:41:53;22.83;;;13.87;;
13959;SDS011;7052;51.050;3.716;2022-12-18T14:44:23;28.93;;;15.83;;
13959;SDS011;7052;51.050;3.716;2022-12-18T14:46:55;23.83;;;14.60;;
13959;SDS011;7052;51.050;3.716;2022-12-18T14:49:29;24.13;;;14.27;;
13959;SDS011;7052;51.050;3.716;2022-12-18T14:51:59;21.43;;;12.90;;
13959;SDS011;7052;51.050;3.716;2022-12-18T14:54:30;23.10;;;14.60;;
13959;SDS011;7052;51.050;3.716;2022-12-18T14:57:01;27.80;;;15.00;;
13959;SDS011;7052;51.050;3.716;2022-12-18T14:59:35;22.47;;;14.03;;
13959;SDS011;7052;51.050;3.716;2022-12-18T15:02:03;20.83;;;14.47;;
13959;SDS011;7052;51.050;3.716;2022-12-18T15:04:39;21.73;;;14.27;;
13959;SDS011;7052;51.050;3.716;2022-12-18T15:07:11;25.73;;;14.70;;
13959;SDS011;7052;51.050;3.716;2022-12-18T15:09:40;22.30;;;13.37;;